sensor_id;sensor_type;location;lat;lon;timestamp;temperature;humidity
14031;DHT22;7090;49.436;8.490;2022-08-03T00:01:55;19.90;1.00
14031;DHT22;7090;49.436;8.490;2022-08-03T00:04:21;19.90;1.00
14031;DHT22;7090;49.436;8.490;2022-08-03T00:06:46;19.80;1.00
14031;DHT22;7090;49.436;8.490;2022-08-03T00:09:12;19.80;1.00
14031;DHT22;7090;49.436;8.490;2022-08-03T00:11:37;19.70;1.00
14031;DHT22;7090;49.436;8.490;2022-08-03T00:14:06;19.50;1.00
14031;DHT22;7090;49.436;8.490;2022-08-03T00:16:32;19.60;1.00
14031;DHT22;7090;49.436;8.490;2022-08-03T00:18:58;19.70;1.00
14031;DHT22;7090;49.436;8.490;2022-08-03T00:21:23;19.90;1.00
14031;DHT22;7090;49.436;8.490;2022-08-03T00:23:49;19.90;1.00
14031;DHT22;7090;49.436;8.490;2022-08-03T00:26:14;19.90;1.00
14031;DHT22;7090;49.436;8.490;2022-08-03T00:28:40;19.90;1.00
14031;DHT22;7090;49.436;8.490;2022-08-03T00:31:06;19.70;1.00
14031;DHT22;7090;49.436;8.490;2022-08-03T00:33:32;19.60;1.00
14031;DHT22;7090;49.436;8.490;2022-08-03T00:35:58;19.50;1.00
14031;DHT22;7090;49.436;8.490;2022-08-03T00:38:23;19.30;1.00
14031;DHT22;7090;49.436;8.490;2022-08-03T00:40:49;19.30;1.00
14031;DHT22;7090;49.436;8.490;2022-08-03T00:43:14;19.50;14.10
14031;DHT22;7090;49.436;8.490;2022-08-03T00:45:41;19.60;99.90
14031;DHT22;7090;49.436;8.490;2022-08-03T00:48:09;19.60;99.90
14031;DHT22;7090;49.436;8.490;2022-08-03T00:50:39;19.50;99.90
14031;DHT22;7090;49.436;8.490;2022-08-03T00:53:08;19.40;99.90
14031;DHT22;7090;49.436;8.490;2022-08-03T00:55:35;19.20;99.90
14031;DHT22;7090;49.436;8.490;2022-08-03T00:58:02;19.20;99.90
14031;DHT22;7090;49.436;8.490;2022-08-03T01:00:33;19.10;99.90
14031;DHT22;7090;49.436;8.490;2022-08-03T01:03:01;19.10;99.90
14031;DHT22;7090;49.436;8.490;2022-08-03T01:05:27;19.00;99.90
14031;DHT22;7090;49.436;8.490;2022-08-03T01:08:05;18.90;99.90
14031;DHT22;7090;49.436;8.490;2022-08-03T01:10:36;18.90;99.90
14031;DHT22;7090;49.436;8.490;2022-08-03T01:18:50;18.80;99.90
14031;DHT22;7090;49.436;8.490;2022-08-03T01:21:30;18.90;99.90
14031;DHT22;7090;49.436;8.490;2022-08-03T01:26:54;18.90;99.90
14031;DHT22;7090;49.436;8.490;2022-08-03T01:29:48;18.90;99.90
14031;DHT22;7090;49.436;8.490;2022-08-03T01:32:33;18.80;99.90
14031;DHT22;7090;49.436;8.490;2022-08-03T01:35:12;18.80;99.90
14031;DHT22;7090;49.436;8.490;2022-08-03T01:37:44;18.80;99.90
14031;DHT22;7090;49.436;8.490;2022-08-03T01:40:13;18.70;99.90
14031;DHT22;7090;49.436;8.490;2022-08-03T01:42:40;18.60;99.90
14031;DHT22;7090;49.436;8.490;2022-08-03T01:45:08;18.70;99.90
14031;DHT22;7090;49.436;8.490;2022-08-03T01:47:35;18.60;99.90
14031;DHT22;7090;49.436;8.490;2022-08-03T01:50:02;18.60;99.90
14031;DHT22;7090;49.436;8.490;2022-08-03T01:52:29;18.50;99.90
14031;DHT22;7090;49.436;8.490;2022-08-03T01:54:57;18.50;99.90
14031;DHT22;7090;49.436;8.490;2022-08-03T01:57:24;18.50;99.90
14031;DHT22;7090;49.436;8.490;2022-08-03T01:59:55;18.50;99.90
14031;DHT22;7090;49.436;8.490;2022-08-03T02:02:21;18.50;99.90
14031;DHT22;7090;49.436;8.490;2022-08-03T02:04:49;18.50;99.90
14031;DHT22;7090;49.436;8.490;2022-08-03T02:07:15;18.50;99.90
14031;DHT22;7090;49.436;8.490;2022-08-03T02:09:43;18.50;99.90
14031;DHT22;7090;49.436;8.490;2022-08-03T02:12:10;18.40;99.90
14031;DHT22;7090;49.436;8.490;2022-08-03T02:14:38;18.40;99.90
14031;DHT22;7090;49.436;8.490;2022-08-03T02:17:06;18.50;99.90
14031;DHT22;7090;49.436;8.490;2022-08-03T02:19:32;18.50;99.90
14031;DHT22;7090;49.436;8.490;2022-08-03T02:21:59;18.50;99.90
14031;DHT22;7090;49.436;8.490;2022-08-03T02:24:25;18.50;99.90
14031;DHT22;7090;49.436;8.490;2022-08-03T02:26:54;18.40;99.90
14031;DHT22;7090;49.436;8.490;2022-08-03T02:29:23;18.50;99.90
14031;DHT22;7090;49.436;8.490;2022-08-03T02:31:49;18.40;99.90
14031;DHT22;7090;49.436;8.490;2022-08-03T02:34:17;18.30;99.90
14031;DHT22;7090;49.436;8.490;2022-08-03T02:36:45;18.20;99.90
14031;DHT22;7090;49.436;8.490;2022-08-03T02:39:16;18.20;99.90
14031;DHT22;7090;49.436;8.490;2022-08-03T02:41:55;18.10;99.90
14031;DHT22;7090;49.436;8.490;2022-08-03T02:44:27;18.00;99.90
14031;DHT22;7090;49.436;8.490;2022-08-03T02:46:56;18.00;99.90
14031;DHT22;7090;49.436;8.490;2022-08-03T02:49:24;18.10;99.90
14031;DHT22;7090;49.436;8.490;2022-08-03T02:51:52;18.30;99.90
14031;DHT22;7090;49.436;8.490;2022-08-03T02:54:19;18.70;99.90
14031;DHT22;7090;49.436;8.490;2022-08-03T02:56:47;18.80;99.90
14031;DHT22;7090;49.436;8.490;2022-08-03T02:59:13;18.80;99.90
14031;DHT22;7090;49.436;8.490;2022-08-03T03:01:41;18.60;99.90
14031;DHT22;7090;49.436;8.490;2022-08-03T03:04:09;18.50;99.90
14031;DHT22;7090;49.436;8.490;2022-08-03T03:06:36;18.40;99.90
14031;DHT22;7090;49.436;8.490;2022-08-03T03:09:03;18.20;99.90
14031;DHT22;7090;49.436;8.490;2022-08-03T03:11:29;18.10;99.90
14031;DHT22;7090;49.436;8.490;2022-08-03T03:13:56;17.90;99.90
14031;DHT22;7090;49.436;8.490;2022-08-03T03:16:22;17.80;99.90
14031;DHT22;7090;49.436;8.490;2022-08-03T03:18:48;17.70;99.90
14031;DHT22;7090;49.436;8.490;2022-08-03T03:21:17;17.70;99.90
14031;DHT22;7090;49.436;8.490;2022-08-03T03:23:44;17.70;99.90
14031;DHT22;7090;49.436;8.490;2022-08-03T03:26:13;17.70;99.90
14031;DHT22;7090;49.436;8.490;2022-08-03T03:28:39;17.70;99.90
14031;DHT22;7090;49.436;8.490;2022-08-03T03:31:05;17.70;99.90
14031;DHT22;7090;49.436;8.490;2022-08-03T03:33:35;17.70;99.90
14031;DHT22;7090;49.436;8.490;2022-08-03T03:36:02;17.70;99.90
14031;DHT22;7090;49.436;8.490;2022-08-03T03:38:29;17.70;99.90
14031;DHT22;7090;49.436;8.490;2022-08-03T03:40:55;17.80;99.90
14031;DHT22;7090;49.436;8.490;2022-08-03T03:43:22;17.70;99.90
14031;DHT22;7090;49.436;8.490;2022-08-03T03:45:48;17.70;99.90
14031;DHT22;7090;49.436;8.490;2022-08-03T03:48:14;17.70;99.90
14031;DHT22;7090;49.436;8.490;2022-08-03T03:50:40;17.70;99.90
14031;DHT22;7090;49.436;8.490;2022-08-03T03:53:08;17.70;99.90
14031;DHT22;7090;49.436;8.490;2022-08-03T03:55:36;17.80;99.90
14031;DHT22;7090;49.436;8.490;2022-08-03T03:58:03;17.80;99.90
14031;DHT22;7090;49.436;8.490;2022-08-03T04:00:29;17.80;99.90
14031;DHT22;7090;49.436;8.490;2022-08-03T04:02:55;18.10;99.90
14031;DHT22;7090;49.436;8.490;2022-08-03T04:05:21;18.30;99.90
14031;DHT22;7090;49.436;8.490;2022-08-03T04:08:06;18.20;99.90
14031;DHT22;7090;49.436;8.490;2022-08-03T04:13:43;18.20;99.90
14031;DHT22;7090;49.436;8.490;2022-08-03T04:16:13;18.20;99.90
14031;DHT22;7090;49.436;8.490;2022-08-03T04:18:43;18.20;99.90
14031;DHT22;7090;49.436;8.490;2022-08-03T04:21:14;18.30;99.90
14031;DHT22;7090;49.436;8.490;2022-08-03T04:23:43;18.30;99.90
14031;DHT22;7090;49.436;8.490;2022-08-03T04:26:12;18.30;99.90
14031;DHT22;7090;49.436;8.490;2022-08-03T04:28:40;18.30;99.90
14031;DHT22;7090;49.436;8.490;2022-08-03T04:31:07;18.20;99.90
14031;DHT22;7090;49.436;8.490;2022-08-03T04:33:36;18.20;99.90
14031;DHT22;7090;49.436;8.490;2022-08-03T04:36:05;18.10;99.90
14031;DHT22;7090;49.436;8.490;2022-08-03T04:38:35;18.10;99.90
14031;DHT22;7090;49.436;8.490;2022-08-03T04:41:02;18.10;99.90
14031;DHT22;7090;49.436;8.490;2022-08-03T04:43:28;18.70;99.90
14031;DHT22;7090;49.436;8.490;2022-08-03T04:45:57;19.40;99.90
14031;DHT22;7090;49.436;8.490;2022-08-03T04:48:24;20.20;99.90
14031;DHT22;7090;49.436;8.490;2022-08-03T04:50:50;21.10;99.90
14031;DHT22;7090;49.436;8.490;2022-08-03T04:53:16;21.80;22.50
14031;DHT22;7090;49.436;8.490;2022-08-03T04:55:42;22.20;1.00
14031;DHT22;7090;49.436;8.490;2022-08-03T04:58:08;22.60;1.00
14031;DHT22;7090;49.436;8.490;2022-08-03T05:00:34;23.30;1.00
14031;DHT22;7090;49.436;8.490;2022-08-03T05:02:59;23.40;99.90
14031;DHT22;7090;49.436;8.490;2022-08-03T05:05:25;23.60;1.00
14031;DHT22;7090;49.436;8.490;2022-08-03T05:07:51;24.20;99.90
14031;DHT22;7090;49.436;8.490;2022-08-03T05:10:17;24.80;49.30
14031;DHT22;7090;49.436;8.490;2022-08-03T05:12:46;25.40;1.00
14031;DHT22;7090;49.436;8.490;2022-08-03T05:15:12;25.40;1.00
14031;DHT22;7090;49.436;8.490;2022-08-03T05:17:39;25.60;1.00
14031;DHT22;7090;49.436;8.490;2022-08-03T05:20:04;25.60;1.00
14031;DHT22;7090;49.436;8.490;2022-08-03T05:22:30;25.40;1.00
14031;DHT22;7090;49.436;8.490;2022-08-03T05:24:56;24.90;1.00
14031;DHT22;7090;49.436;8.490;2022-08-03T05:27:22;24.50;1.00
14031;DHT22;7090;49.436;8.490;2022-08-03T05:29:48;24.60;1.00
14031;DHT22;7090;49.436;8.490;2022-08-03T05:32:15;24.50;1.00
14031;DHT22;7090;49.436;8.490;2022-08-03T05:34:40;24.60;1.00
14031;DHT22;7090;49.436;8.490;2022-08-03T05:37:06;25.00;1.00
14031;DHT22;7090;49.436;8.490;2022-08-03T05:39:33;25.10;1.00
14031;DHT22;7090;49.436;8.490;2022-08-03T05:41:59;25.30;99.90
14031;DHT22;7090;49.436;8.490;2022-08-03T05:44:24;26.00;99.90
14031;DHT22;7090;49.436;8.490;2022-08-03T05:46:50;26.20;7.10
14031;DHT22;7090;49.436;8.490;2022-08-03T05:49:16;26.10;49.60
14031;DHT22;7090;49.436;8.490;2022-08-03T05:51:42;26.10;1.00
14031;DHT22;7090;49.436;8.490;2022-08-03T05:54:08;26.20;1.00
14031;DHT22;7090;49.436;8.490;2022-08-03T05:56:34;26.60;1.00
14031;DHT22;7090;49.436;8.490;2022-08-03T05:58:59;27.40;1.00
14031;DHT22;7090;49.436;8.490;2022-08-03T06:01:25;27.80;99.90
14031;DHT22;7090;49.436;8.490;2022-08-03T06:03:50;28.10;4.50
14031;DHT22;7090;49.436;8.490;2022-08-03T06:06:16;28.60;1.00
14031;DHT22;7090;49.436;8.490;2022-08-03T06:08:43;28.80;99.90
14031;DHT22;7090;49.436;8.490;2022-08-03T06:11:09;29.10;1.00
14031;DHT22;7090;49.436;8.490;2022-08-03T06:13:35;28.80;7.90
14031;DHT22;7090;49.436;8.490;2022-08-03T06:16:01;28.80;99.90
14031;DHT22;7090;49.436;8.490;2022-08-03T06:18:27;28.90;99.90
14031;DHT22;7090;49.436;8.490;2022-08-03T06:20:53;29.10;1.00
14031;DHT22;7090;49.436;8.490;2022-08-03T06:23:19;29.20;1.00
14031;DHT22;7090;49.436;8.490;2022-08-03T06:25:45;29.20;1.00
14031;DHT22;7090;49.436;8.490;2022-08-03T06:28:11;29.80;1.00
14031;DHT22;7090;49.436;8.490;2022-08-03T06:30:38;30.00;1.00
14031;DHT22;7090;49.436;8.490;2022-08-03T06:33:04;30.50;1.00
14031;DHT22;7090;49.436;8.490;2022-08-03T06:35:30;30.90;1.00
14031;DHT22;7090;49.436;8.490;2022-08-03T06:37:55;31.10;99.90
14031;DHT22;7090;49.436;8.490;2022-08-03T06:40:22;31.40;1.00
14031;DHT22;7090;49.436;8.490;2022-08-03T06:42:54;31.60;1.00
14031;DHT22;7090;49.436;8.490;2022-08-03T06:45:20;31.30;1.00
14031;DHT22;7090;49.436;8.490;2022-08-03T06:47:46;31.10;1.00
14031;DHT22;7090;49.436;8.490;2022-08-03T06:50:12;30.70;1.00
14031;DHT22;7090;49.436;8.490;2022-08-03T06:52:37;30.30;1.00
14031;DHT22;7090;49.436;8.490;2022-08-03T06:55:04;30.00;1.00
14031;DHT22;7090;49.436;8.490;2022-08-03T06:57:29;29.80;1.00
14031;DHT22;7090;49.436;8.490;2022-08-03T06:59:55;30.50;1.00
14031;DHT22;7090;49.436;8.490;2022-08-03T07:02:26;31.10;1.00
14031;DHT22;7090;49.436;8.490;2022-08-03T07:04:52;31.60;1.00
14031;DHT22;7090;49.436;8.490;2022-08-03T07:07:18;31.50;1.00
14031;DHT22;7090;49.436;8.490;2022-08-03T07:09:45;31.60;99.90
14031;DHT22;7090;49.436;8.490;2022-08-03T07:12:12;31.80;99.90
14031;DHT22;7090;49.436;8.490;2022-08-03T07:14:38;31.30;1.00
14031;DHT22;7090;49.436;8.490;2022-08-03T07:17:03;31.00;99.90
14031;DHT22;7090;49.436;8.490;2022-08-03T07:19:29;30.60;99.90
14031;DHT22;7090;49.436;8.490;2022-08-03T07:21:54;30.20;1.00
14031;DHT22;7090;49.436;8.490;2022-08-03T07:24:20;30.10;99.90
14031;DHT22;7090;49.436;8.490;2022-08-03T07:26:46;30.20;99.90
14031;DHT22;7090;49.436;8.490;2022-08-03T07:29:11;29.90;1.00
14031;DHT22;7090;49.436;8.490;2022-08-03T07:31:37;29.30;23.30
14031;DHT22;7090;49.436;8.490;2022-08-03T07:34:03;29.30;1.00
14031;DHT22;7090;49.436;8.490;2022-08-03T07:36:28;29.80;1.00
14031;DHT22;7090;49.436;8.490;2022-08-03T07:38:54;30.60;1.00
14031;DHT22;7090;49.436;8.490;2022-08-03T07:41:19;30.90;1.00
14031;DHT22;7090;49.436;8.490;2022-08-03T07:43:45;31.50;1.00
14031;DHT22;7090;49.436;8.490;2022-08-03T07:46:10;32.30;1.00
14031;DHT22;7090;49.436;8.490;2022-08-03T07:48:36;32.70;1.00
14031;DHT22;7090;49.436;8.490;2022-08-03T07:51:02;32.60;99.90
14031;DHT22;7090;49.436;8.490;2022-08-03T07:53:28;32.40;99.90
14031;DHT22;7090;49.436;8.490;2022-08-03T07:55:53;32.70;99.90
14031;DHT22;7090;49.436;8.490;2022-08-03T07:58:19;32.30;1.00
14031;DHT22;7090;49.436;8.490;2022-08-03T08:00:47;32.60;56.10
14031;DHT22;7090;49.436;8.490;2022-08-03T08:03:12;32.80;99.90
14031;DHT22;7090;49.436;8.490;2022-08-03T08:05:38;32.90;99.90
14031;DHT22;7090;49.436;8.490;2022-08-03T08:08:04;33.20;82.10
14031;DHT22;7090;49.436;8.490;2022-08-03T08:10:30;33.20;99.90
14031;DHT22;7090;49.436;8.490;2022-08-03T08:12:57;33.30;1.00
14031;DHT22;7090;49.436;8.490;2022-08-03T08:15:23;33.00;1.00
14031;DHT22;7090;49.436;8.490;2022-08-03T08:17:54;33.40;1.00
14031;DHT22;7090;49.436;8.490;2022-08-03T08:20:22;33.00;51.20
14031;DHT22;7090;49.436;8.490;2022-08-03T08:22:48;33.30;99.90
14031;DHT22;7090;49.436;8.490;2022-08-03T08:25:14;33.30;99.90
14031;DHT22;7090;49.436;8.490;2022-08-03T08:27:44;33.30;99.90
14031;DHT22;7090;49.436;8.490;2022-08-03T08:30:11;33.40;99.90
14031;DHT22;7090;49.436;8.490;2022-08-03T08:32:37;33.20;1.00
14031;DHT22;7090;49.436;8.490;2022-08-03T08:35:03;33.20;1.00
14031;DHT22;7090;49.436;8.490;2022-08-03T08:37:29;33.00;87.70
14031;DHT22;7090;49.436;8.490;2022-08-03T08:39:55;33.50;1.00
14031;DHT22;7090;49.436;8.490;2022-08-03T08:42:21;34.00;99.90
14031;DHT22;7090;49.436;8.490;2022-08-03T08:44:47;33.90;6.70
14031;DHT22;7090;49.436;8.490;2022-08-03T08:47:14;34.10;99.90
14031;DHT22;7090;49.436;8.490;2022-08-03T08:49:40;34.50;1.00
14031;DHT22;7090;49.436;8.490;2022-08-03T08:52:07;34.50;99.90
14031;DHT22;7090;49.436;8.490;2022-08-03T08:54:35;35.10;1.00
14031;DHT22;7090;49.436;8.490;2022-08-03T08:57:02;34.70;99.90
14031;DHT22;7090;49.436;8.490;2022-08-03T08:59:32;34.90;99.90
14031;DHT22;7090;49.436;8.490;2022-08-03T09:01:59;35.40;1.00
14031;DHT22;7090;49.436;8.490;2022-08-03T09:04:25;35.80;99.90
14031;DHT22;7090;49.436;8.490;2022-08-03T09:06:52;35.30;1.00
14031;DHT22;7090;49.436;8.490;2022-08-03T09:09:17;35.70;99.40
14031;DHT22;7090;49.436;8.490;2022-08-03T09:11:43;35.50;99.90
14031;DHT22;7090;49.436;8.490;2022-08-03T09:14:09;34.30;26.80
14031;DHT22;7090;49.436;8.490;2022-08-03T09:16:35;34.90;1.00
14031;DHT22;7090;49.436;8.490;2022-08-03T09:19:12;34.10;1.00
14031;DHT22;7090;49.436;8.490;2022-08-03T09:21:38;33.60;1.00
14031;DHT22;7090;49.436;8.490;2022-08-03T09:24:05;32.00;1.00
14031;DHT22;7090;49.436;8.490;2022-08-03T09:26:33;31.80;1.00
14031;DHT22;7090;49.436;8.490;2022-08-03T09:29:07;31.90;1.00
14031;DHT22;7090;49.436;8.490;2022-08-03T09:34:07;33.00;1.00
14031;DHT22;7090;49.436;8.490;2022-08-03T09:39:07;34.20;1.00
14031;DHT22;7090;49.436;8.490;2022-08-03T09:41:36;35.30;1.00
14031;DHT22;7090;49.436;8.490;2022-08-03T09:44:02;35.90;99.90
14031;DHT22;7090;49.436;8.490;2022-08-03T09:46:28;35.70;1.00
14031;DHT22;7090;49.436;8.490;2022-08-03T09:49:11;34.80;99.90
14031;DHT22;7090;49.436;8.490;2022-08-03T09:51:38;34.80;99.90
14031;DHT22;7090;49.436;8.490;2022-08-03T09:54:04;35.60;99.90
14031;DHT22;7090;49.436;8.490;2022-08-03T09:56:45;34.10;99.90
14031;DHT22;7090;49.436;8.490;2022-08-03T09:59:12;33.40;99.90
14031;DHT22;7090;49.436;8.490;2022-08-03T10:01:39;33.70;99.90
14031;DHT22;7090;49.436;8.490;2022-08-03T10:04:12;34.60;99.90
14031;DHT22;7090;49.436;8.490;2022-08-03T10:06:39;35.60;1.00
14031;DHT22;7090;49.436;8.490;2022-08-03T10:09:07;36.30;1.00
14031;DHT22;7090;49.436;8.490;2022-08-03T10:11:33;36.10;1.00
14031;DHT22;7090;49.436;8.490;2022-08-03T10:14:02;35.40;1.00
14031;DHT22;7090;49.436;8.490;2022-08-03T10:16:32;34.60;1.00
14031;DHT22;7090;49.436;8.490;2022-08-03T10:18:58;34.10;99.90
14031;DHT22;7090;49.436;8.490;2022-08-03T10:21:25;33.70;99.90
14031;DHT22;7090;49.436;8.490;2022-08-03T10:23:54;33.40;99.90
14031;DHT22;7090;49.436;8.490;2022-08-03T10:26:21;34.90;99.90
14031;DHT22;7090;49.436;8.490;2022-08-03T10:28:52;35.30;99.90
14031;DHT22;7090;49.436;8.490;2022-08-03T10:31:21;35.40;99.90
14031;DHT22;7090;49.436;8.490;2022-08-03T10:33:50;33.90;99.90
14031;DHT22;7090;49.436;8.490;2022-08-03T10:36:16;34.00;99.90
14031;DHT22;7090;49.436;8.490;2022-08-03T10:38:46;34.80;99.90
14031;DHT22;7090;49.436;8.490;2022-08-03T10:41:13;34.80;1.00
14031;DHT22;7090;49.436;8.490;2022-08-03T10:46:23;33.50;99.90
14031;DHT22;7090;49.436;8.490;2022-08-03T10:48:50;34.10;99.90
14031;DHT22;7090;49.436;8.490;2022-08-03T10:51:18;34.50;99.90
14031;DHT22;7090;49.436;8.490;2022-08-03T10:53:44;35.40;99.90
14031;DHT22;7090;49.436;8.490;2022-08-03T11:02:01;36.20;99.90
14031;DHT22;7090;49.436;8.490;2022-08-03T11:04:27;37.20;99.90
14031;DHT22;7090;49.436;8.490;2022-08-03T11:09:50;38.40;99.90
14031;DHT22;7090;49.436;8.490;2022-08-03T11:12:32;38.20;99.90
14031;DHT22;7090;49.436;8.490;2022-08-03T11:15:00;37.00;1.00
14031;DHT22;7090;49.436;8.490;2022-08-03T11:17:26;36.30;99.90
14031;DHT22;7090;49.436;8.490;2022-08-03T11:19:52;35.70;1.00
14031;DHT22;7090;49.436;8.490;2022-08-03T11:22:19;34.60;99.90
14031;DHT22;7090;49.436;8.490;2022-08-03T11:27:19;35.20;99.90
14031;DHT22;7090;49.436;8.490;2022-08-03T11:45:59;34.90;1.00
14031;DHT22;7090;49.436;8.490;2022-08-03T11:48:39;34.70;1.00
14031;DHT22;7090;49.436;8.490;2022-08-03T11:51:06;34.00;1.00
14031;DHT22;7090;49.436;8.490;2022-08-03T11:53:33;34.80;1.00
14031;DHT22;7090;49.436;8.490;2022-08-03T11:56:00;34.30;1.00
14031;DHT22;7090;49.436;8.490;2022-08-03T11:58:28;34.50;1.00
14031;DHT22;7090;49.436;8.490;2022-08-03T12:01:03;35.00;1.00
14031;DHT22;7090;49.436;8.490;2022-08-03T12:03:32;34.60;1.00
14031;DHT22;7090;49.436;8.490;2022-08-03T12:05:58;34.10;1.00
14031;DHT22;7090;49.436;8.490;2022-08-03T12:10:52;34.50;1.00
14031;DHT22;7090;49.436;8.490;2022-08-03T12:13:18;34.50;1.00
14031;DHT22;7090;49.436;8.490;2022-08-03T12:15:50;34.30;1.00
14031;DHT22;7090;49.436;8.490;2022-08-03T12:18:18;35.10;1.00
14031;DHT22;7090;49.436;8.490;2022-08-03T12:20:45;34.60;1.00
14031;DHT22;7090;49.436;8.490;2022-08-03T12:23:12;34.70;1.00
14031;DHT22;7090;49.436;8.490;2022-08-03T12:25:39;35.30;1.00
14031;DHT22;7090;49.436;8.490;2022-08-03T12:30:37;37.50;1.00
14031;DHT22;7090;49.436;8.490;2022-08-03T12:33:12;38.30;1.00
14031;DHT22;7090;49.436;8.490;2022-08-03T12:35:38;38.60;1.00
14031;DHT22;7090;49.436;8.490;2022-08-03T12:38:04;38.40;21.00
14031;DHT22;7090;49.436;8.490;2022-08-03T12:40:30;37.50;1.00
14031;DHT22;7090;49.436;8.490;2022-08-03T12:42:55;36.50;80.60
14031;DHT22;7090;49.436;8.490;2022-08-03T12:45:22;36.00;64.50
14031;DHT22;7090;49.436;8.490;2022-08-03T12:47:57;35.40;99.90
14031;DHT22;7090;49.436;8.490;2022-08-03T12:50:34;34.90;99.90
14031;DHT22;7090;49.436;8.490;2022-08-03T12:53:01;34.80;1.00
14031;DHT22;7090;49.436;8.490;2022-08-03T12:55:29;34.80;1.00
14031;DHT22;7090;49.436;8.490;2022-08-03T12:58:02;34.60;1.00
14031;DHT22;7090;49.436;8.490;2022-08-03T13:00:28;34.70;1.00
14031;DHT22;7090;49.436;8.490;2022-08-03T13:03:05;36.10;1.00
14031;DHT22;7090;49.436;8.490;2022-08-03T13:05:42;36.40;1.00
14031;DHT22;7090;49.436;8.490;2022-08-03T13:08:20;36.40;1.00
14031;DHT22;7090;49.436;8.490;2022-08-03T13:10:47;36.30;1.00
14031;DHT22;7090;49.436;8.490;2022-08-03T13:13:13;36.90;1.00
14031;DHT22;7090;49.436;8.490;2022-08-03T13:15:39;37.50;1.00
14031;DHT22;7090;49.436;8.490;2022-08-03T13:18:04;37.80;10.20
14031;DHT22;7090;49.436;8.490;2022-08-03T13:20:30;37.60;1.00
14031;DHT22;7090;49.436;8.490;2022-08-03T13:22:56;37.30;1.00
14031;DHT22;7090;49.436;8.490;2022-08-03T13:25:22;37.10;1.00
14031;DHT22;7090;49.436;8.490;2022-08-03T13:27:47;36.50;1.00
14031;DHT22;7090;49.436;8.490;2022-08-03T13:30:14;36.40;1.00
14031;DHT22;7090;49.436;8.490;2022-08-03T13:32:40;35.90;1.00
14031;DHT22;7090;49.436;8.490;2022-08-03T13:35:07;35.80;1.00
14031;DHT22;7090;49.436;8.490;2022-08-03T13:37:33;36.20;1.00
14031;DHT22;7090;49.436;8.490;2022-08-03T13:40:00;36.30;1.00
14031;DHT22;7090;49.436;8.490;2022-08-03T13:42:29;35.30;1.00
14031;DHT22;7090;49.436;8.490;2022-08-03T13:44:55;35.50;1.00
14031;DHT22;7090;49.436;8.490;2022-08-03T13:47:20;36.60;1.00
14031;DHT22;7090;49.436;8.490;2022-08-03T13:49:46;36.70;1.00
14031;DHT22;7090;49.436;8.490;2022-08-03T13:52:12;36.40;1.00
14031;DHT22;7090;49.436;8.490;2022-08-03T13:54:37;37.10;1.00
14031;DHT22;7090;49.436;8.490;2022-08-03T13:57:03;37.20;1.00
14031;DHT22;7090;49.436;8.490;2022-08-03T13:59:29;38.50;1.00
14031;DHT22;7090;49.436;8.490;2022-08-03T14:01:54;38.60;1.00
14031;DHT22;7090;49.436;8.490;2022-08-03T14:04:20;39.10;1.00
14031;DHT22;7090;49.436;8.490;2022-08-03T14:06:46;39.50;1.00
14031;DHT22;7090;49.436;8.490;2022-08-03T14:09:12;39.70;1.00
14031;DHT22;7090;49.436;8.490;2022-08-03T14:11:39;39.90;1.00
14031;DHT22;7090;49.436;8.490;2022-08-03T14:14:08;40.10;1.00
14031;DHT22;7090;49.436;8.490;2022-08-03T14:16:35;40.50;1.00
14031;DHT22;7090;49.436;8.490;2022-08-03T14:19:00;40.80;1.00
14031;DHT22;7090;49.436;8.490;2022-08-03T14:21:26;41.50;1.00
14031;DHT22;7090;49.436;8.490;2022-08-03T14:23:51;41.00;1.00
14031;DHT22;7090;49.436;8.490;2022-08-03T14:26:17;41.10;1.00
14031;DHT22;7090;49.436;8.490;2022-08-03T14:28:44;41.20;1.00
14031;DHT22;7090;49.436;8.490;2022-08-03T14:31:10;40.90;1.00
14031;DHT22;7090;49.436;8.490;2022-08-03T14:33:36;40.60;1.00
14031;DHT22;7090;49.436;8.490;2022-08-03T14:36:02;41.20;1.00
14031;DHT22;7090;49.436;8.490;2022-08-03T14:38:28;41.20;1.00
14031;DHT22;7090;49.436;8.490;2022-08-03T14:40:53;41.10;1.00
14031;DHT22;7090;49.436;8.490;2022-08-03T14:43:19;40.90;1.00
14031;DHT22;7090;49.436;8.490;2022-08-03T14:45:49;40.90;1.00
14031;DHT22;7090;49.436;8.490;2022-08-03T14:48:22;41.10;1.00
14031;DHT22;7090;49.436;8.490;2022-08-03T14:50:47;41.60;1.00
14031;DHT22;7090;49.436;8.490;2022-08-03T14:53:13;41.10;1.00
14031;DHT22;7090;49.436;8.490;2022-08-03T14:55:39;41.50;1.00
14031;DHT22;7090;49.436;8.490;2022-08-03T14:58:05;41.40;1.00
14031;DHT22;7090;49.436;8.490;2022-08-03T15:00:32;41.00;1.00
14031;DHT22;7090;49.436;8.490;2022-08-03T15:02:58;41.00;1.00
14031;DHT22;7090;49.436;8.490;2022-08-03T15:05:24;40.60;1.00
14031;DHT22;7090;49.436;8.490;2022-08-03T15:07:49;40.10;1.00
14031;DHT22;7090;49.436;8.490;2022-08-03T15:10:15;39.70;1.00
14031;DHT22;7090;49.436;8.490;2022-08-03T15:12:41;39.80;1.00
14031;DHT22;7090;49.436;8.490;2022-08-03T15:15:07;39.60;99.90
14031;DHT22;7090;49.436;8.490;2022-08-03T15:17:32;39.70;1.00
14031;DHT22;7090;49.436;8.490;2022-08-03T15:19:58;39.60;99.90
14031;DHT22;7090;49.436;8.490;2022-08-03T15:22:23;39.40;1.00
14031;DHT22;7090;49.436;8.490;2022-08-03T15:24:49;40.00;99.90
14031;DHT22;7090;49.436;8.490;2022-08-03T15:27:15;40.30;99.90
14031;DHT22;7090;49.436;8.490;2022-08-03T15:29:40;40.70;99.90
14031;DHT22;7090;49.436;8.490;2022-08-03T15:32:06;40.60;1.00
14031;DHT22;7090;49.436;8.490;2022-08-03T15:34:32;40.80;99.90
14031;DHT22;7090;49.436;8.490;2022-08-03T15:36:57;41.00;99.90
14031;DHT22;7090;49.436;8.490;2022-08-03T15:39:23;40.90;99.90
14031;DHT22;7090;49.436;8.490;2022-08-03T15:41:48;39.40;99.90
14031;DHT22;7090;49.436;8.490;2022-08-03T15:44:18;38.60;99.90
14031;DHT22;7090;49.436;8.490;2022-08-03T15:46:44;38.20;99.90
14031;DHT22;7090;49.436;8.490;2022-08-03T15:49:09;39.10;99.90
14031;DHT22;7090;49.436;8.490;2022-08-03T15:51:35;39.40;99.90
14031;DHT22;7090;49.436;8.490;2022-08-03T15:54:02;39.60;99.90
14031;DHT22;7090;49.436;8.490;2022-08-03T15:56:28;39.50;99.90
14031;DHT22;7090;49.436;8.490;2022-08-03T15:58:54;39.40;99.90
14031;DHT22;7090;49.436;8.490;2022-08-03T16:01:22;39.70;99.90
14031;DHT22;7090;49.436;8.490;2022-08-03T16:03:49;39.00;99.90
14031;DHT22;7090;49.436;8.490;2022-08-03T16:06:15;38.80;99.90
14031;DHT22;7090;49.436;8.490;2022-08-03T16:08:40;38.10;99.90
14031;DHT22;7090;49.436;8.490;2022-08-03T16:11:06;37.70;99.90
14031;DHT22;7090;49.436;8.490;2022-08-03T16:13:32;37.20;99.90
14031;DHT22;7090;49.436;8.490;2022-08-03T16:15:57;36.60;99.90
14031;DHT22;7090;49.436;8.490;2022-08-03T16:18:24;36.30;99.90
14031;DHT22;7090;49.436;8.490;2022-08-03T16:20:49;36.10;99.90
14031;DHT22;7090;49.436;8.490;2022-08-03T16:23:16;35.80;99.90
14031;DHT22;7090;49.436;8.490;2022-08-03T16:25:45;36.00;99.90
14031;DHT22;7090;49.436;8.490;2022-08-03T16:28:11;36.10;99.90
14031;DHT22;7090;49.436;8.490;2022-08-03T16:30:37;35.60;99.90
14031;DHT22;7090;49.436;8.490;2022-08-03T16:33:03;35.30;99.90
14031;DHT22;7090;49.436;8.490;2022-08-03T16:35:29;35.10;99.90
14031;DHT22;7090;49.436;8.490;2022-08-03T16:37:54;35.20;99.90
14031;DHT22;7090;49.436;8.490;2022-08-03T16:40:20;35.10;99.90
14031;DHT22;7090;49.436;8.490;2022-08-03T16:42:46;35.00;99.90
14031;DHT22;7090;49.436;8.490;2022-08-03T16:45:12;35.10;99.90